createdAt,value
2022-09-09T00:02:31.599Z,9.73
2022-09-09T00:07:42.877Z,9.82
2022-09-09T00:13:22.517Z,10.85
2022-09-09T00:18:55.575Z,13.95
2022-09-09T00:24:01.760Z,8.27
2022-09-09T00:29:35.736Z,9.18
2022-09-09T00:34:46.659Z,14.60
2022-09-09T00:39:54.864Z,12.95
2022-09-09T00:45:29.620Z,21.20
2022-09-09T00:50:54.945Z,18.55
2022-09-09T00:56:17.182Z,11.38
2022-09-09T01:01:22.831Z,13.55
2022-09-09T01:06:34.342Z,17.65
2022-09-09T01:12:04.380Z,20.50
2022-09-09T01:17:33.574Z,10.52
2022-09-09T01:22:52.966Z,21.75
2022-09-09T01:28:09.919Z,12.57
2022-09-09T01:33:19.147Z,10.73
2022-09-09T01:38:26.832Z,17.48
2022-09-09T01:43:33.070Z,20.55
2022-09-09T01:48:39.917Z,30.67
2022-09-09T01:53:48.784Z,22.75
2022-09-09T01:58:58.842Z,29.33
2022-09-09T02:04:11.806Z,24.38
2022-09-09T02:09:22.167Z,17.00
2022-09-09T02:14:34.434Z,13.75
2022-09-09T02:19:49.019Z,26.48
2022-09-09T02:25:03.903Z,15.15
2022-09-09T02:30:10.361Z,18.63
2022-09-09T02:35:26.932Z,21.33
2022-09-09T02:40:32.608Z,26.63
2022-09-09T02:45:56.836Z,20.95
2022-09-09T02:51:39.332Z,20.77
2022-09-09T02:56:52.561Z,23.00
2022-09-09T03:02:01.333Z,24.73
2022-09-09T03:07:07.986Z,19.25
2022-09-09T03:12:14.213Z,21.48
2022-09-09T03:17:20.290Z,19.23
2022-09-09T03:22:31.188Z,22.15
2022-09-09T03:27:42.287Z,27.10
2022-09-09T03:32:50.638Z,22.42
2022-09-09T03:37:57.444Z,21.50
2022-09-09T03:43:05.247Z,24.00
2022-09-09T03:48:14.391Z,22.02
2022-09-09T03:53:24.976Z,22.63
2022-09-09T03:58:31.122Z,26.50
2022-09-09T04:03:44.952Z,22.45
2022-09-09T04:09:02.807Z,24.73
2022-09-09T04:14:11.434Z,24.45
2022-09-09T04:19:17.527Z,32.88
2022-09-09T04:24:24.152Z,24.15
2022-09-09T04:29:29.994Z,29.38
2022-09-09T04:34:35.493Z,32.15
2022-09-09T04:39:41.153Z,26.30
2022-09-09T04:44:47.271Z,24.50
2022-09-09T04:49:52.953Z,22.38
2022-09-09T04:54:58.510Z,28.85
2022-09-09T05:00:04.286Z,22.55
2022-09-09T05:05:48.639Z,36.97
2022-09-09T05:10:54.772Z,29.38
2022-09-09T05:16:01.085Z,35.28
2022-09-09T05:21:08.926Z,26.88
2022-09-09T05:26:20.382Z,24.17
2022-09-09T05:31:30.916Z,37.22
2022-09-09T05:36:39.848Z,35.03
2022-09-09T05:46:51.995Z,43.53
2022-09-09T05:51:59.012Z,39.22
2022-09-09T05:57:04.209Z,38.67
2022-09-09T06:02:11.365Z,36.50
2022-09-09T06:07:17.197Z,36.20
2022-09-09T06:12:23.299Z,28.10
2022-09-09T06:17:28.913Z,35.25
2022-09-09T06:22:35.786Z,29.55
2022-09-09T06:27:41.120Z,32.80
2022-09-09T06:32:47.257Z,31.90
2022-09-09T06:37:54.191Z,36.33
2022-09-09T06:43:04.399Z,36.35
2022-09-09T06:48:18.284Z,35.45
2022-09-09T06:58:28.999Z,36.47
2022-09-09T07:03:37.301Z,39.15
2022-09-09T07:08:55.753Z,50.95
2022-09-09T07:14:05.186Z,40.33
2022-09-09T07:19:15.139Z,42.00
2022-09-09T07:24:21.511Z,37.97
2022-09-09T07:29:27.530Z,37.40
2022-09-09T07:34:33.261Z,42.45
2022-09-09T07:39:38.639Z,39.28
2022-09-09T07:44:44.306Z,41.08
2022-09-09T07:49:57.056Z,36.53
2022-09-09T07:55:08.956Z,46.58
2022-09-09T08:00:17.450Z,39.25
2022-09-09T08:05:28.843Z,44.72
2022-09-09T08:10:34.765Z,48.20
2022-09-09T08:20:46.706Z,47.08
2022-09-09T08:25:53.243Z,44.00
2022-09-09T08:30:59.480Z,36.00
2022-09-09T08:36:24.315Z,43.50
2022-09-09T08:41:48.439Z,42.60
2022-09-09T08:47:29.402Z,29.52
2022-09-09T08:52:58.568Z,26.55
2022-09-09T08:58:14.279Z,27.17
2022-09-09T09:03:49.846Z,27.05
2022-09-09T09:09:20.672Z,32.63
2022-09-09T09:14:36.708Z,38.05
2022-09-09T09:19:49.297Z,43.92
2022-09-09T09:24:56.589Z,38.45
2022-09-09T09:30:26.676Z,38.92
2022-09-09T09:35:35.209Z,34.30
2022-09-09T09:40:53.643Z,40.22
2022-09-09T09:46:18.442Z,41.45
2022-09-09T09:51:27.541Z,37.33
2022-09-09T09:56:33.291Z,45.28
2022-09-09T10:01:42.133Z,44.80
2022-09-09T10:06:50.541Z,39.70
2022-09-09T10:12:10.250Z,38.88
2022-09-09T10:17:29.839Z,29.23
2022-09-09T10:22:37.257Z,31.27
2022-09-09T10:28:06.372Z,28.58
2022-09-09T10:33:35.052Z,47.38
2022-09-09T10:38:48.484Z,30.15
2022-09-09T10:44:18.494Z,45.33
2022-09-09T10:49:54.172Z,42.20
2022-09-09T10:55:06.404Z,44.87
2022-09-09T11:00:43.268Z,38.92
2022-09-09T11:06:07.425Z,32.15
2022-09-09T11:11:16.448Z,38.92
2022-09-09T11:16:57.305Z,39.40
2022-09-09T11:22:09.258Z,40.63
2022-09-09T11:27:41.904Z,32.13
2022-09-09T11:33:12.636Z,41.53
2022-09-09T11:38:32.768Z,32.22
2022-09-09T11:43:50.081Z,39.92
2022-09-09T11:49:03.854Z,43.15
2022-09-09T11:54:48.335Z,40.40
2022-09-09T11:59:55.452Z,43.65
2022-09-09T12:05:18.293Z,39.65
2022-09-09T12:10:30.666Z,28.15
2022-09-09T12:15:37.072Z,28.05
2022-09-09T12:21:04.340Z,32.00
2022-09-09T12:26:47.166Z,34.92
2022-09-09T12:32:11.268Z,40.55
2022-09-09T12:37:25.720Z,38.05
2022-09-09T12:42:31.754Z,42.50
2022-09-09T12:48:09.099Z,37.75
2022-09-09T12:53:28.824Z,53.58
2022-09-09T12:58:35.586Z,44.22
2022-09-09T13:03:48.337Z,42.67
2022-09-09T13:08:56.506Z,42.67
2022-09-09T13:14:02.833Z,45.03
2022-09-09T13:19:21.036Z,45.17
2022-09-09T13:24:37.789Z,44.88
2022-09-09T13:29:53.820Z,40.85
2022-09-09T13:40:08.963Z,42.55
2022-09-09T13:45:23.247Z,42.72
2022-09-09T13:50:33.951Z,36.47
2022-09-09T13:55:42.199Z,44.38
2022-09-09T14:00:49.876Z,41.72
2022-09-09T14:05:57.049Z,40.47
2022-09-09T14:11:04.027Z,42.45
2022-09-09T14:16:15.095Z,43.30
2022-09-09T14:21:21.098Z,41.47
2022-09-09T14:26:27.132Z,47.00
2022-09-09T14:31:32.716Z,43.88
2022-09-09T14:36:38.421Z,40.67
2022-09-09T14:41:44.073Z,48.60
2022-09-09T14:46:52.875Z,44.42
2022-09-09T14:51:58.989Z,51.35
2022-09-09T14:57:04.881Z,51.33
2022-09-09T15:07:22.655Z,44.08
2022-09-09T15:12:28.439Z,46.15
2022-09-09T15:17:34.776Z,44.70
2022-09-09T15:22:40.485Z,44.00
2022-09-09T15:27:51.195Z,46.63
2022-09-09T15:33:04.709Z,33.67
2022-09-09T15:38:11.253Z,42.17
2022-09-09T15:43:16.931Z,32.35
2022-09-09T15:53:27.379Z,39.25
2022-09-09T16:03:45.395Z,41.25
2022-09-09T16:08:54.229Z,33.85
2022-09-09T16:14:00.204Z,45.53
2022-09-09T16:19:12.319Z,43.00
2022-09-09T16:24:23.475Z,45.28
2022-09-09T16:29:29.840Z,45.38
2022-09-09T16:34:38.153Z,39.63
2022-09-09T16:39:43.874Z,34.70
2022-09-09T16:50:11.690Z,39.17
2022-09-09T16:55:17.345Z,43.17
2022-09-09T17:00:35.808Z,40.10
2022-09-09T17:06:04.530Z,43.30
2022-09-09T17:11:21.541Z,36.20
2022-09-09T17:16:29.934Z,31.25
2022-09-09T17:21:42.594Z,30.42
2022-09-09T17:26:56.859Z,28.90
2022-09-09T17:32:05.363Z,27.58
2022-09-09T17:37:11.184Z,33.13
2022-09-09T17:47:22.862Z,31.80
2022-09-09T17:52:32.229Z,32.65
2022-09-09T17:57:38.004Z,39.55
2022-09-09T18:02:44.291Z,40.85
2022-09-09T18:07:50.658Z,43.35
2022-09-09T18:12:55.935Z,43.28
2022-09-09T18:18:04.119Z,32.22
2022-09-09T18:23:10.514Z,35.58
2022-09-09T18:28:16.095Z,31.80
2022-09-09T18:33:21.689Z,41.15
2022-09-09T18:38:27.231Z,41.40
2022-09-09T18:48:38.417Z,40.90
2022-09-09T18:53:45.152Z,43.10
2022-09-09T18:58:59.347Z,34.35
2022-09-09T19:04:06.163Z,41.00
2022-09-09T19:09:15.574Z,32.28
2022-09-09T19:14:21.151Z,34.05
2022-09-09T19:19:33.446Z,26.10
2022-09-09T19:24:39.078Z,31.60
2022-09-09T19:29:45.958Z,27.10
2022-09-09T19:34:52.311Z,32.47
2022-09-09T19:39:58.134Z,37.38
2022-09-09T19:50:09.872Z,41.90
2022-09-09T19:55:15.059Z,45.83
2022-09-09T20:00:20.811Z,40.63
2022-09-09T20:05:26.456Z,45.90
2022-09-09T20:10:32.559Z,45.90
2022-09-09T20:15:37.952Z,47.90
2022-09-09T20:20:44.803Z,48.05
2022-09-09T20:25:50.010Z,34.67
2022-09-09T20:30:55.361Z,36.80
2022-09-09T20:36:06.824Z,52.90
2022-09-09T20:41:15.908Z,45.28
2022-09-09T20:46:41.633Z,41.40
2022-09-09T20:51:47.956Z,41.70
2022-09-09T20:56:55.059Z,42.10
2022-09-09T21:02:01.125Z,58.47
2022-09-09T21:07:09.050Z,41.83
2022-09-09T21:12:14.573Z,44.90
2022-09-09T21:17:20.941Z,40.13
2022-09-09T21:22:26.543Z,40.70
2022-09-09T21:27:31.809Z,47.97
2022-09-09T21:32:37.242Z,44.37
2022-09-09T21:37:42.529Z,44.67
2022-09-09T21:42:47.973Z,40.78
2022-09-09T21:47:54.164Z,50.78
2022-09-09T21:52:59.723Z,55.08
2022-09-09T21:58:06.315Z,51.90
2022-09-09T22:03:12.008Z,48.25
2022-09-09T22:08:19.602Z,43.67
2022-09-09T22:13:25.320Z,40.13
2022-09-09T22:18:33.085Z,45.67
2022-09-09T22:23:39.071Z,44.35
2022-09-09T22:28:44.278Z,51.00
2022-09-09T22:33:50.286Z,40.93
2022-09-09T22:38:56.179Z,39.40
2022-09-09T22:49:07.719Z,38.88
2022-09-09T22:54:13.388Z,44.28
2022-09-09T22:59:19.140Z,38.13
2022-09-09T23:09:30.460Z,41.15
2022-09-09T23:14:36.550Z,44.13
2022-09-09T23:23:30.089Z,44.45
2022-09-09T23:28:36.887Z,49.92
2022-09-09T23:33:43.821Z,24.58
2022-09-09T23:38:49.583Z,25.20
2022-09-09T23:43:56.286Z,29.45
2022-09-09T23:49:02.182Z,16.48
2022-09-09T23:54:08.900Z,25.50
2022-09-09T23:59:14.509Z,20.85
